General Aviation Weather

Text Reports

Enter one or more of the following location identifiers separated by a space:

Zip Code, Four-Character ICAO or Three-Character IATA airport codes.

METAR - Aviation Routine Weather Report
KPYX - Perryton, Texas
Updated at 1:15 PM GMT on July 23, 2014 (8:15 AM CDT):
METAR KPYX 231315Z AUTO 23005KT 10SM CLR 23/19 A3025 RMK AO2 T02330188
TAF - Terminal Area Forecast
KPYX - Perryton, Texas
Updated at 1:15 PM GMT on July 23, 2014 (8:15 AM CDT):
No TAF is currently available for this location.
Decoded:
No decoded TAF is available.
PIREP - Pilot Weather Report
KPYX - Perryton, Texas
Updated at 1:15 PM GMT on July 23, 2014 (8:15 AM CDT):
No PIREP is currently available for this location.
AIRMET - Airmens Meteorological Information
KPYX - Perryton, Texas
Updated at 1:15 PM GMT on July 23, 2014 (8:15 AM CDT):
No AIRMET is currently available for this location.
SIGMET - Significant Meteorological Information
KPYX - Perryton, Texas
Updated at 1:15 PM GMT on July 23, 2014 (8:15 AM CDT):
No SIGMET is currently available for this location.
NOTAM - Notice to Airmen
KPYX - Perryton, Texas
Updated at 1:15 PM GMT on July 23, 2014 (8:15 AM CDT):
No NOTAM is currently available for this location.
Forecast Area
KPYX - Perryton, Texas
Updated at 1:15 PM GMT on July 23, 2014 (8:15 AM CDT):
No NOTAM is currently available for this location.
Aviation Weather Maps